OJAI/AMM METAR and TAF weather

Enter ICAO airport designator
Station Type Date Time Source
OJAI METAR 2019/12/07 00:00 UTC NOAA

OJAI 070000Z 00000KT 6000 FEW030 07/05 Q1018 NOSIG


Station Type Date Time Source
OJAI Decoded METAR 2019/12/07 00:00 UTC NOAA

Queen Alia Airport, Jordan (OJAI) 31-40N 035-58E
Dec 06, 2019 - 07:00 PM EST / 2019.12.07 0000 UTC
Wind: Calm:0
Visibility: 3 mile(s):0
Sky conditions: mostly clear
Temperature: 44 F (7 C)
Dew Point: 41 F (5 C)
Relative Humidity: 87%
Pressure (altimeter): 30.06 in. Hg (1018 hPa)
ob: OJAI 070000Z 00000KT 6000 FEW030 07/05 Q1018 NOSIG
cycle: 0

Station Type Date Time Source
OJAI TAF 2019/12/06 18:15 UTC NOAA

TAF TAF OJAI 061700Z 0618/0724 30006KT 6000 SCT030 PROB40 0702/0706 VRB01KT 0800 FG

Example: see airport list